Beatty, Nevada Weather observations

Data are for observation ending at time listed.
 Day   Time    Ave.   Ave.  Ave.  Vector   Max.   Stn.    Total    Solar   Ave.  
  of    of     Air    Rel.  Wind   Wind    Wind   Baro.  Precip.   Rad.    Soil  
Year   Day     Temp.  Hum.  Speed  Dir.    Gust   Pres.                    Temp. 
2015   (PST)    F      %     mph   deg.    mph     mb.     in.     W/m2     F   
------------------------------------------------------------------------------
 144   12:20   77.8    26    3.0    24      6.8   896.9    0.00     815    66.1
 144   12:30   78.4    25    2.7    17      6.5   896.8    0.00     755    66.1
 144   12:40   78.1    25    2.1    52      7.5   896.7    0.00     385    66.2
 144   12:50   76.9    26    4.2    13     10.7   896.6    0.00     353    66.2
 144   13:00   77.1    25    1.7   263      4.2   896.5    0.00     371    66.3
 144   13:10   77.0    25    2.9   147      6.9   896.4    0.00     256    66.3
 144   13:20   77.7    26    2.0    46      5.9   896.3    0.00     402    66.3
 144   13:30   79.3    24    2.7   213      5.5   896.2    0.00     859    66.4
 144   13:40   78.5    24    3.1   301      6.1   896.1    0.00     572    66.5
 144   13:50   77.6    24    3.6   228      6.6   895.9    0.00     387    66.6
 144   14:00   77.9    24    2.6   210      7.0   895.8    0.00     257    66.7
 144   14:10   77.4    24    3.0   198      6.2   895.7    0.00     111    66.8
 144   14:20   78.4    24    4.0   194      6.8   895.6    0.00     552    66.8
 144   14:30   79.1    25    4.9   189     11.0   895.4    0.00     583    66.9
 144   14:40   78.9    26    6.0   174     12.8   895.3    0.00     345    67.0
 144   14:50   78.0    26    5.9   180     10.9   895.2    0.00     461    67.0
 144   15:00   79.0    26    5.3   188     13.5   895.1    0.00     439    67.1
 144   15:10   77.8    26    5.8   220     12.1   895.0    0.00     305    67.2
 144   15:20   77.5    26    4.4   219      9.6   894.9    0.00     177    67.3
 144   15:30   78.4    25    5.9   183     12.5   894.7    0.00     480    67.4
 144   15:40   79.7    24    5.0   198     11.1   894.6    0.00     579    67.4
 144   15:50   79.7    24    8.3   180     15.3   894.4    0.00     415    67.5
 144   16:00   79.1    25    7.0   206     14.0   894.4    0.00     356    67.6
 144   16:10   79.1    25    5.5   232     11.6   894.3    0.00     417    67.7
 144   16:20   80.0    24    5.9   237     11.0   894.3    0.00     459    67.7
 144   16:30   79.1    25    6.7   216     12.0   894.2    0.00     174    67.8
 144   16:40   78.6    25    7.8   210     14.1   894.1    0.00     274    67.8
 144   16:50   79.8    24    7.5   206     12.9   894.0    0.00     390    67.9
 144   17:00   80.3    24    9.1   211     14.6   893.9    0.00     281    68.0
 144   17:10   79.8    24    7.0   227     14.2   893.9    0.00     268    68.0
 144   17:20   79.5    24    7.9   222     14.3   893.9    0.00     228    68.1
 144   17:30   79.1    24    5.5   233     10.6   893.9    0.00     198    68.1
 144   17:40   78.9    24    6.3   227     11.8   894.0    0.00     118    68.2
 144   17:50   77.4    26    5.4   329     16.3   894.4    0.00      63    68.2
 144   18:00   74.1    34   10.2     7     20.5   894.8    0.00     121    68.3
 144   18:10   73.2    35    6.3    27     11.8   895.1    0.00      47    68.3
 144   18:20   72.1    34    5.5    40     13.4   895.3    0.00      46    68.4
 144   18:30   71.4    35    5.7    76     15.2   895.4    0.00      26    68.4
 144   18:40   71.0    35    3.0    58      9.7   895.6    0.00      11    68.5
 144   18:50   71.0    34    4.8    83     10.6   895.8    0.00       4    68.5
 144   19:00   71.0    34    4.8    76     12.1   896.0    0.00       1    68.5
 144   19:10   71.1    34    6.3    81     14.5   896.2    0.00       0    68.6
 144   19:20   71.1    34    4.8    71      9.6   896.3    0.00       0    68.6
 144   19:30   70.7    36    4.1    22     10.4   896.4    0.00       0    68.6
 144   19:40   69.9    38    2.8    32      7.8   896.4    0.00       0    68.7
 144   19:50   69.2    40    2.0    56      4.2   896.4    0.00       0    68.7
 144   20:00   68.8    41    1.5    30      4.4   896.4    0.00       0    68.8
 144   20:10   68.3    44    1.8   346      4.2   896.3    0.00       0    68.8
 144   20:20   68.1    44    1.4   349      3.8   896.2    0.00       0    68.8
 144   20:30   67.9    45    0.9   336      2.4   896.3    0.00       0    68.8
 144   20:40   67.7    47    1.2   308      3.0   896.4    0.00       0    68.8
 144   20:50   67.3    50    1.7     6      4.7   896.6    0.00       0    68.8
 144   21:00   67.1    52    2.0    42      6.4   896.9    0.00       0    68.8
 144   21:10   67.0    53    2.4    32      6.2   896.9    0.00       0    68.9
 144   21:20   66.9    51    3.1    48      5.8   897.0    0.00       0    68.9
 144   21:30   66.5    54    2.6    28      7.2   897.1    0.00       0    68.9
 144   21:40   65.2    59    3.6    24      7.4   897.1    0.00       0    68.9
 144   21:50   65.3    56    2.7    65      7.2   897.0    0.00       0    68.9
 144   22:00   65.4    53    3.5    77      8.8   897.0    0.00       0    68.9
 144   22:10   65.4    51    3.4    74      9.0   896.9    0.00       0    68.9
 144   22:20   64.9    52    2.9    20      7.8   897.2    0.00       0    68.9
 144   22:30   64.2    54    1.8    54      4.1   897.3    0.00       0    68.9
 144   22:40   64.6    49    2.8    78      8.2   897.4    0.00       0    68.9
 144   22:50   64.9    48    1.2   142      4.7   897.5    0.00       0    69.0
 144   23:00   64.5    50    2.7   178      5.4   897.7    0.00       0    69.0
 144   23:10   64.3    51    3.6   145      7.1   897.9    0.00       0    69.0
 144   23:20   64.3    50    1.9   220      6.0   897.9    0.00       0    69.0
 144   23:30   63.4    54    1.6   359      3.7   897.9    0.00       0    69.0
 144   23:40   62.2    56    2.4    72      4.1   897.9    0.00       0    69.0
 144   23:50   61.8    57    2.7    52      5.1   897.9    0.00       0    69.0
 145    0:00   61.8    56    2.2    25      4.5   897.9    0.00       0    69.0
 145    0:10   61.5    56    2.8    25      5.1   897.9    0.00       0    69.0
 145    0:20   61.9    55    2.7    58      6.1   897.9    0.00       0    69.0
 145    0:30   61.6    56    2.9    29      6.6   897.9    0.00       0    69.0
 145    0:40   61.1    58    3.7    61      8.3   898.0    0.00       0    68.9
 145    0:50   60.7    60    3.7    59      8.9   898.0    0.00       0    68.9
 145    1:00   60.2    62    3.1    42      7.2   898.0    0.00       0    68.9
 145    1:10   59.8    62    3.8    56      7.7   898.0    0.00       0    68.9
 145    1:20   59.7    61    3.4    63      7.7   898.1    0.00       0    68.9
 145    1:30   59.7    62    3.3    62      6.9   898.1    0.00       0    68.9
 145    1:40   59.1    65    2.8    50      5.9   898.1    0.00       0    68.9
 145    1:50   58.6    67    2.5    46      5.6   898.1    0.00       0    68.8
 145    2:00   59.0    63    2.4    60      5.1   898.0    0.00       0    68.8
 145    2:10   58.7    65    2.7    24      5.6   898.0    0.00       0    68.8
 145    2:20   58.6    63    3.5    28      7.1   898.0    0.00       0    68.8
 145    2:30   57.9    65    3.9    22      7.0   898.0    0.00       0    68.8
 145    2:40   57.7    65    3.8    24      7.2   897.9    0.00       0    68.8
 145    2:50   57.4    66    2.9    27      6.9   898.0    0.00       0    68.8
 145    3:00   57.0    68    4.1    25      7.5   897.9    0.00       0    68.8
 145    3:10   56.2    70    4.8    24      8.1   898.0    0.00       0    68.7
 145    3:20   55.5    72    4.5    27      8.6   898.0    0.00       0    68.7
 145    3:30   55.2    74    3.7    32      7.4   898.0    0.00       0    68.7
 145    3:40   55.3    72    4.5    26      8.8   898.0    0.00       0    68.7
 145    3:50   56.0    68    3.7    54      8.8   898.0    0.00       0    68.7
 145    4:00   56.4    66    4.0    65      8.9   898.1    0.00       0    68.7
 145    4:10   56.5    65    3.0    53      7.9   898.1    0.00       0    68.6
 145    4:20   56.5    65    3.7    54      8.5   898.2    0.00       0    68.6
 145    4:30   56.6    64    3.9    47      8.3   898.2    0.00       0    68.6
 145    4:40   55.2    69    4.0    16      7.7   898.3    0.00       4    68.6
 145    4:50   54.9    69    3.4    16      6.6   898.3    0.00       6    68.6
 145    5:00   54.2    72    4.1    17      7.1   898.4    0.00       9    68.5
 145    5:10   54.4    72    4.3    21      8.0   898.4    0.00      17    68.5
 145    5:20   54.5    72    4.9    24      8.9   898.5    0.00      70    68.5
 145    5:30   56.2    68    3.1    55      7.8   898.6    0.00      96    68.5
 145    5:40   56.6    68    3.6    35      7.5   898.6    0.00     121    68.4
 145    5:50   57.1    67    3.6    32      7.9   898.7    0.00     145    68.4
 145    6:00   57.8    65    3.0    36      6.4   898.8    0.00     169    68.4
 145    6:10   58.8    64    3.1    32      6.1   898.8    0.00     195    68.3
 145    6:20   59.3    63    3.3    26      5.6   898.8    0.00     197    68.3
 145    6:30   59.9    61    3.4    22      6.6   898.8    0.00     143    68.3
 145    6:40   60.5    60    3.2    14      5.6   898.9    0.00      34    68.2
 145    6:50   60.6    59    3.4    17      6.2   898.9    0.00     117    68.2
 145    7:00   61.2    57    3.9    29      8.3   899.0    0.00      32    68.1
 145    7:10   62.1    56    3.7    26      7.3   899.1    0.00      32    68.1
 145    7:20   62.9    54    3.5    56      7.1   899.1    0.00      35    68.1
 145    7:30   64.1    52    3.0    55      6.9   899.1    0.00     183    68.1
 145    7:40   65.2    50    2.1    58      5.0   899.1    0.00     437    68.0
 145    7:50   66.2    48    2.0    37      5.6   899.1    0.00     462    68.0
 145    8:00   67.4    45    2.8    93      6.4   899.1    0.00     485    68.0
 145    8:10   68.3    42    1.3    86      4.8   899.1    0.00     508    68.0
 145    8:20   69.6    40    1.4   332      4.3   899.1    0.00     533    67.9
 145    8:30   70.5    38    1.6   165      4.9   899.1    0.00     555    67.9
 145    8:40   70.4    39    2.4   256      4.7   899.1    0.00     578    67.8
 145    8:50   71.4    37    1.8   185      4.1   899.0    0.00     598    67.8
 145    9:00   72.8    35    2.2   154      5.1   898.9    0.00     618    67.7
 145    9:10   73.2    35    3.0   195      5.9   898.9    0.00     638    67.7
 145    9:20   72.8    35    3.6   215      9.1   898.9    0.00     657    67.7
 145    9:30   73.4    34    2.9   181      8.4   898.8    0.00     674    67.7
 145    9:40   74.5    32    1.5   185      4.3   898.7    0.00     690    67.7
 145    9:50   75.6    31    2.8   171      5.7   898.7    0.00     705    67.6
 145   10:00   76.5    30    1.9   142      8.2   898.7    0.00     720    67.6
 145   10:10   75.8    30    3.7   250      9.6   898.7    0.00     733    67.6
 145   10:20   75.0    31    4.0   212      9.4   898.7    0.00     744    67.5
 145   10:30   75.8    30    2.1   249      6.3   898.6    0.00     755    67.5
 145   10:40   76.3    29    4.0   226      7.6   898.5    0.00     763    67.5
 145   10:50   77.2    28    4.0   196      9.6   898.5    0.00     770    67.5
 145   11:00   77.1    27    3.6   217      6.9   898.5    0.00     779    67.5
 145   11:10   77.5    27    2.9   193      7.3   898.4    0.00     783    67.6
 145   11:20   77.8    27    4.2   152      9.9   898.3    0.00     787    67.6
 145   11:30   78.4    25    3.7   190      8.8   898.2    0.00     790    67.6
 145   11:40   79.5    23    3.3   190      9.9   898.1    0.00     794    67.6
 145   11:50   79.9    24    2.6   197      8.5   898.0    0.00     794    67.7
 145   12:00   79.6    24    4.8   214     10.7   898.0    0.00     799    67.7
 145   12:10   80.1    24    2.7   218      7.7   898.0    0.00     812    67.7

Return to Beatty, Nevada graphs page.


Western Regional Climate Center,wrcc@dri.edu